createdAt,value
2016-01-09T00:00:04.333Z,-2.28
2016-01-09T00:00:15.801Z,-2.27
2016-01-09T00:00:27.273Z,-2.28
2016-01-09T00:00:38.726Z,-2.28
2016-01-09T00:00:50.195Z,-2.3
2016-01-09T00:01:01.664Z,-2.25
2016-01-09T00:01:13.148Z,-2.28
2016-01-09T00:01:24.634Z,-2.23
2016-01-09T00:01:36.119Z,-2.28
2016-01-09T00:01:47.603Z,-2.32
2016-01-09T00:01:59.088Z,-2.24
2016-01-09T00:02:10.561Z,-2.28
2016-01-09T00:02:21.910Z,-2.34
2016-01-09T00:02:33.413Z,-2.27
2016-01-09T00:02:44.913Z,-2.34
2016-01-09T00:02:56.413Z,-2.28
2016-01-09T00:03:07.928Z,-2.34
2016-01-09T00:03:19.397Z,-2.3
2016-01-09T00:03:30.900Z,-2.27
2016-01-09T00:03:42.385Z,-2.3
2016-01-09T00:03:53.853Z,-2.3
2016-01-09T00:04:05.322Z,-2.3
2016-01-09T00:04:16.775Z,-2.34
2016-01-09T00:04:28.231Z,-2.23
2016-01-09T00:04:39.700Z,-2.24
2016-01-09T00:04:51.169Z,-2.3
2016-01-09T00:05:02.653Z,-2.25
2016-01-09T00:05:14.122Z,-2.3
2016-01-09T00:05:25.577Z,-2.27
2016-01-09T00:05:37.046Z,-2.3
2016-01-09T00:05:48.515Z,-2.27
2016-01-09T00:05:59.983Z,-2.27
2016-01-09T00:06:11.452Z,-2.24
2016-01-09T00:06:22.905Z,-2.27
2016-01-09T00:06:34.377Z,-2.37
2016-01-09T00:06:45.893Z,-2.32
2016-01-09T00:06:57.361Z,-2.36
2016-01-09T00:07:08.830Z,-2.3
2016-01-09T00:07:20.299Z,-2.36
2016-01-09T00:07:31.755Z,-2.28
2016-01-09T00:07:43.239Z,-2.2
2016-01-09T00:07:54.739Z,-2.32
2016-01-09T00:08:06.239Z,-2.43
2016-01-09T00:08:17.739Z,-2.4
2016-01-09T00:08:29.226Z,-2.28
2016-01-09T00:08:40.726Z,-2.34
2016-01-09T00:08:52.210Z,-2.42
2016-01-09T00:09:03.679Z,-2.44
2016-01-09T00:09:15.132Z,-2.47
2016-01-09T00:09:26.604Z,-2.44
2016-01-09T00:09:38.072Z,-2.4
2016-01-09T00:09:49.526Z,-2.42
2016-01-09T00:10:01.010Z,-2.43
2016-01-09T00:10:12.463Z,-2.42
2016-01-09T00:10:23.932Z,-2.49
2016-01-09T00:10:35.419Z,-2.47
2016-01-09T00:10:46.888Z,-2.44
2016-01-09T00:10:58.372Z,-2.54
2016-01-09T00:11:09.825Z,-2.44
2016-01-09T00:11:21.279Z,-2.4
2016-01-09T00:11:32.749Z,-2.43
2016-01-09T00:11:44.202Z,-2.47
2016-01-09T00:11:55.687Z,-2.43
2016-01-09T00:12:07.171Z,-2.39
2016-01-09T00:12:17.937Z,-2.43
2016-01-09T00:12:29.424Z,-2.39
2016-01-09T00:12:40.893Z,-2.47
2016-01-09T00:12:52.362Z,-2.46
2016-01-09T00:13:03.862Z,-2.44
2016-01-09T00:13:15.346Z,-2.44
2016-01-09T00:13:26.846Z,-2.44
2016-01-09T00:13:38.365Z,-2.47
2016-01-09T00:13:49.833Z,-2.49
2016-01-09T00:14:01.349Z,-2.46
2016-01-09T00:14:12.818Z,-2.46
2016-01-09T00:14:24.302Z,-2.44
2016-01-09T00:14:35.102Z,-2.44
2016-01-09T00:14:46.602Z,-2.4
2016-01-09T00:14:58.071Z,-2.53
2016-01-09T00:15:09.524Z,-2.4
2016-01-09T00:15:20.993Z,-2.44
2016-01-09T00:15:32.463Z,-2.46
2016-01-09T00:15:43.932Z,-2.44
2016-01-09T00:15:55.432Z,-2.47
2016-01-09T00:16:06.885Z,-2.43
2016-01-09T00:16:18.354Z,-2.4
2016-01-09T00:16:29.807Z,-2.44
2016-01-09T00:16:41.263Z,-2.43
2016-01-09T00:16:52.763Z,-2.5
2016-01-09T00:17:04.216Z,-2.44
2016-01-09T00:17:15.685Z,-2.43
2016-01-09T00:17:27.154Z,-2.4
2016-01-09T00:17:38.626Z,-2.44
2016-01-09T00:17:50.094Z,-2.46
2016-01-09T00:18:01.563Z,-2.4
2016-01-09T00:18:13.016Z,-2.46
2016-01-09T00:18:24.501Z,-2.44
2016-01-09T00:18:35.988Z,-2.44
2016-01-09T00:18:47.472Z,-2.46
2016-01-09T00:18:58.988Z,-2.47
2016-01-09T00:19:10.457Z,-2.44
2016-01-09T00:19:21.972Z,-2.44
2016-01-09T00:19:33.459Z,-2.43
2016-01-09T00:19:44.943Z,-2.47
2016-01-09T00:19:56.459Z,-2.43
2016-01-09T00:20:07.943Z,-2.39
2016-01-09T00:20:19.459Z,-2.37
2016-01-09T00:20:30.943Z,-2.42
2016-01-09T00:20:42.399Z,-2.43
2016-01-09T00:20:53.884Z,-2.49
2016-01-09T00:21:05.337Z,-2.44
2016-01-09T00:21:16.806Z,-2.43
2016-01-09T00:21:28.259Z,-2.5
2016-01-09T00:21:39.746Z,-2.46
2016-01-09T00:21:51.215Z,-2.47
2016-01-09T00:22:02.684Z,-2.46
2016-01-09T00:22:14.152Z,-2.47
2016-01-09T00:22:25.621Z,-2.42
2016-01-09T00:22:37.107Z,-2.43
2016-01-09T00:22:48.592Z,-2.43
2016-01-09T00:23:00.076Z,-2.4
2016-01-09T00:23:11.561Z,-2.46
2016-01-09T00:23:23.014Z,-2.46
2016-01-09T00:23:34.470Z,-2.46
2016-01-09T00:23:45.954Z,-2.37
2016-01-09T00:23:57.423Z,-2.42
2016-01-09T00:24:08.907Z,-2.4
2016-01-09T00:24:20.392Z,-2.46
2016-01-09T00:24:31.876Z,-2.44
2016-01-09T00:24:43.379Z,-2.4
2016-01-09T00:24:54.863Z,-2.53
2016-01-09T00:25:06.332Z,-2.53
2016-01-09T00:25:17.832Z,-2.53
2016-01-09T00:25:29.332Z,-2.44
2016-01-09T00:25:40.834Z,-2.54
2016-01-09T00:25:52.303Z,-2.42
2016-01-09T00:26:03.756Z,-2.47
2016-01-09T00:26:15.225Z,-2.54
2016-01-09T00:26:26.678Z,-2.5
2016-01-09T00:26:38.135Z,-2.44
2016-01-09T00:26:49.619Z,-2.62
2016-01-09T00:27:01.073Z,-2.61
2016-01-09T00:27:12.526Z,-2.53
2016-01-09T00:27:23.979Z,-2.55
2016-01-09T00:27:35.449Z,-2.58
2016-01-09T00:27:46.917Z,-2.64
2016-01-09T00:27:58.386Z,-2.61
2016-01-09T00:28:09.855Z,-2.58
2016-01-09T00:28:21.324Z,-2.64
2016-01-09T00:28:32.792Z,-2.5
2016-01-09T00:28:44.249Z,-2.61
2016-01-09T00:28:55.734Z,-2.58
2016-01-09T00:29:07.218Z,-2.61
2016-01-09T00:29:18.671Z,-2.5
2016-01-09T00:29:30.156Z,-2.58
2016-01-09T00:29:41.659Z,-2.62
2016-01-09T00:29:53.127Z,-2.55
2016-01-09T00:30:04.627Z,-2.55
2016-01-09T00:30:16.096Z,-2.67
2016-01-09T00:30:27.612Z,-2.64
2016-01-09T00:30:39.098Z,-2.64
2016-01-09T00:30:50.614Z,-2.64
2016-01-09T00:31:02.083Z,-2.68
2016-01-09T00:31:13.551Z,-2.67
2016-01-09T00:31:25.083Z,-2.72
2016-01-09T00:31:36.586Z,-2.7
2016-01-09T00:31:48.054Z,-2.65
2016-01-09T00:31:59.523Z,-2.72
2016-01-09T00:32:10.976Z,-2.72
2016-01-09T00:32:22.476Z,-2.68
2016-01-09T00:32:33.929Z,-2.75
2016-01-09T00:32:45.400Z,-2.67
2016-01-09T00:32:56.884Z,-2.75
2016-01-09T00:33:08.353Z,-2.73
2016-01-09T00:33:19.822Z,-2.7
2016-01-09T00:33:31.291Z,-2.73
2016-01-09T00:33:42.762Z,-2.79
2016-01-09T00:33:54.231Z,-2.68
2016-01-09T00:34:05.684Z,-2.75
2016-01-09T00:34:17.169Z,-2.75
2016-01-09T00:34:28.622Z,-2.7
2016-01-09T00:34:40.108Z,-2.7
2016-01-09T00:34:51.577Z,-2.76
2016-01-09T00:35:03.046Z,-2.72
2016-01-09T00:35:14.530Z,-2.82
2016-01-09T00:35:25.999Z,-2.73
2016-01-09T00:35:37.503Z,-2.75
2016-01-09T00:35:49.003Z,-2.7
2016-01-09T00:36:00.487Z,-2.78
2016-01-09T00:36:11.987Z,-2.73
2016-01-09T00:36:22.753Z,-2.78
2016-01-09T00:36:34.268Z,-2.76
2016-01-09T00:36:45.770Z,-2.75
2016-01-09T00:36:57.239Z,-2.79
2016-01-09T00:37:08.599Z,-2.75
2016-01-09T00:37:20.114Z,-2.79
2016-01-09T00:37:31.567Z,-2.76
2016-01-09T00:37:43.055Z,-2.75
2016-01-09T00:37:54.508Z,-2.76
2016-01-09T00:38:05.961Z,-2.73
2016-01-09T00:38:17.430Z,-2.76
2016-01-09T00:38:28.883Z,-2.76
2016-01-09T00:38:40.369Z,-2.75
2016-01-09T00:38:51.838Z,-2.79
2016-01-09T00:39:03.307Z,-2.78
2016-01-09T00:39:14.775Z,-2.73
2016-01-09T00:39:26.244Z,-2.72
2016-01-09T00:39:37.713Z,-2.75
2016-01-09T00:39:49.169Z,-2.78
2016-01-09T00:40:00.638Z,-2.75
2016-01-09T00:40:12.091Z,-2.75
2016-01-09T00:40:23.560Z,-2.81
2016-01-09T00:40:35.044Z,-2.78
2016-01-09T00:40:46.516Z,-2.76
2016-01-09T00:40:58.000Z,-2.78
2016-01-09T00:41:09.485Z,-2.72
2016-01-09T00:41:20.969Z,-2.76
2016-01-09T00:41:32.469Z,-2.81
2016-01-09T00:41:43.972Z,-2.75
2016-01-09T00:41:55.441Z,-2.78
2016-01-09T00:42:06.972Z,-2.7
2016-01-09T00:42:18.456Z,-2.75
2016-01-09T00:42:29.941Z,-2.75
2016-01-09T00:42:41.475Z,-2.76
2016-01-09T00:42:52.991Z,-2.76
2016-01-09T00:43:04.459Z,-2.76
2016-01-09T00:43:15.912Z,-2.75
2016-01-09T00:43:27.366Z,-2.79
2016-01-09T00:43:38.834Z,-2.79
2016-01-09T00:43:50.305Z,-2.73
2016-01-09T00:44:01.774Z,-2.75
2016-01-09T00:44:13.258Z,-2.75
2016-01-09T00:44:24.711Z,-2.79
2016-01-09T00:44:36.196Z,-2.78
2016-01-09T00:44:47.652Z,-2.81
2016-01-09T00:44:59.105Z,-2.81
2016-01-09T00:45:10.589Z,-2.81
2016-01-09T00:45:22.042Z,-2.79
2016-01-09T00:45:33.511Z,-2.79
2016-01-09T00:45:44.264Z,-2.76
2016-01-09T00:45:55.733Z,-2.79
2016-01-09T00:46:07.217Z,-2.81
2016-01-09T00:46:18.686Z,-2.78
2016-01-09T00:46:30.217Z,-2.81
2016-01-09T00:46:41.702Z,-2.83
2016-01-09T00:46:53.204Z,-2.79
2016-01-09T00:47:04.672Z,-2.78
2016-01-09T00:47:16.141Z,-2.81
2016-01-09T00:47:27.657Z,-2.81
2016-01-09T00:47:39.126Z,-2.75
2016-01-09T00:47:50.629Z,-2.85
2016-01-09T00:48:02.144Z,-2.79
2016-01-09T00:48:13.629Z,-2.76
2016-01-09T00:48:25.129Z,-2.82
2016-01-09T00:48:36.597Z,-2.82
2016-01-09T00:48:48.116Z,-2.85
2016-01-09T00:48:59.585Z,-2.76
2016-01-09T00:49:11.053Z,-2.9
2016-01-09T00:49:22.522Z,-2.76
2016-01-09T00:49:33.991Z,-2.81
2016-01-09T00:49:45.463Z,-2.86
2016-01-09T00:49:56.931Z,-2.78
2016-01-09T00:50:08.385Z,-2.78
2016-01-09T00:50:19.838Z,-2.86
2016-01-09T00:50:31.306Z,-2.88
2016-01-09T00:50:42.775Z,-2.79
2016-01-09T00:50:54.262Z,-2.85
2016-01-09T00:51:05.746Z,-2.82
2016-01-09T00:51:17.199Z,-2.78
2016-01-09T00:51:28.668Z,-2.83
2016-01-09T00:51:40.137Z,-2.88
2016-01-09T00:51:51.624Z,-2.9
2016-01-09T00:52:03.093Z,-2.88
2016-01-09T00:52:14.577Z,-2.82
2016-01-09T00:52:26.046Z,-2.78
2016-01-09T00:52:37.499Z,-2.85
2016-01-09T00:52:49.018Z,-2.82
2016-01-09T00:53:00.502Z,-2.86
2016-01-09T00:53:12.018Z,-2.83
2016-01-09T00:53:23.549Z,-2.82
2016-01-09T00:53:35.033Z,-2.86
2016-01-09T00:53:46.551Z,-2.82
2016-01-09T00:53:58.035Z,-2.86
2016-01-09T00:54:09.488Z,-2.76
2016-01-09T00:54:20.957Z,-2.88
2016-01-09T00:54:32.410Z,-2.9
2016-01-09T00:54:43.879Z,-2.85
2016-01-09T00:54:55.351Z,-2.85
2016-01-09T00:55:06.819Z,-2.91
2016-01-09T00:55:18.273Z,-2.85
2016-01-09T00:55:29.741Z,-2.79
2016-01-09T00:55:41.226Z,-2.83
2016-01-09T00:55:52.696Z,-2.85
2016-01-09T00:56:04.181Z,-2.82
2016-01-09T00:56:15.634Z,-2.79
2016-01-09T00:56:27.087Z,-2.85
2016-01-09T00:56:38.556Z,-2.82
2016-01-09T00:56:50.028Z,-2.86
2016-01-09T00:57:01.512Z,-2.9
2016-01-09T00:57:12.996Z,-2.86
2016-01-09T00:57:24.465Z,-2.91
2016-01-09T00:57:35.934Z,-2.85
2016-01-09T00:57:47.421Z,-2.93
2016-01-09T00:57:58.890Z,-2.93
2016-01-09T00:58:10.359Z,-2.83
2016-01-09T00:58:22.037Z,-2.86
2016-01-09T00:58:33.506Z,-2.88
2016-01-09T00:58:44.975Z,-2.88
2016-01-09T00:58:56.493Z,-2.85
2016-01-09T00:59:07.961Z,-2.81
2016-01-09T00:59:19.461Z,-2.88
2016-01-09T00:59:30.930Z,-2.88
2016-01-09T00:59:42.399Z,-2.82
2016-01-09T00:59:53.871Z,-2.79
2016-01-09T01:00:05.324Z,-2.85
2016-01-09T01:00:16.777Z,-2.85
2016-01-09T01:00:28.246Z,-2.86
2016-01-09T01:00:39.714Z,-2.96
2016-01-09T01:00:51.202Z,-2.86
2016-01-09T01:01:02.670Z,-2.78
2016-01-09T01:01:13.967Z,-2.85
2016-01-09T01:01:25.467Z,-2.88
2016-01-09T01:01:36.920Z,-2.88
2016-01-09T01:01:48.377Z,-2.86
2016-01-09T01:01:59.689Z,-2.85
2016-01-09T01:02:11.142Z,-2.79
2016-01-09T01:02:22.627Z,-2.88
2016-01-09T01:02:34.111Z,-2.85
2016-01-09T01:02:45.580Z,-2.83
2016-01-09T01:02:57.067Z,-2.81
2016-01-09T01:03:08.551Z,-2.76
2016-01-09T01:03:20.005Z,-2.79
2016-01-09T01:03:31.505Z,-2.76
2016-01-09T01:03:42.989Z,-2.78
2016-01-09T01:03:54.491Z,-2.83
2016-01-09T01:04:05.960Z,-2.79
2016-01-09T01:04:17.475Z,-2.76
2016-01-09T01:04:28.975Z,-2.83
2016-01-09T01:04:40.460Z,-2.85
2016-01-09T01:04:51.931Z,-2.78
2016-01-09T01:05:03.385Z,-2.81
2016-01-09T01:05:14.853Z,-2.75
2016-01-09T01:05:26.306Z,-2.86
2016-01-09T01:05:37.760Z,-2.79
2016-01-09T01:05:49.247Z,-2.82
2016-01-09T01:06:00.700Z,-2.81
2016-01-09T01:06:12.184Z,-2.83
2016-01-09T01:06:23.653Z,-2.83
2016-01-09T01:06:35.106Z,-2.76
2016-01-09T01:06:46.606Z,-2.81
2016-01-09T01:06:58.077Z,-2.83
2016-01-09T01:07:09.546Z,-2.81
2016-01-09T01:07:21.030Z,-2.79
2016-01-09T01:07:32.499Z,-2.83
2016-01-09T01:07:43.999Z,-2.79
2016-01-09T01:07:55.502Z,-2.79
2016-01-09T01:08:06.986Z,-2.76
2016-01-09T01:08:18.502Z,-2.81
2016-01-09T01:08:29.986Z,-2.73
2016-01-09T01:08:41.486Z,-2.76
2016-01-09T01:08:53.004Z,-2.82
2016-01-09T01:09:04.473Z,-2.79
2016-01-09T01:09:16.004Z,-2.79
2016-01-09T01:09:27.488Z,-2.75
2016-01-09T01:09:38.254Z,-2.81
2016-01-09T01:09:49.723Z,-2.85
2016-01-09T01:10:01.194Z,-2.75
2016-01-09T01:10:12.663Z,-2.83
2016-01-09T01:10:24.132Z,-2.79
2016-01-09T01:10:34.898Z,-2.82
2016-01-09T01:10:46.366Z,-2.83
2016-01-09T01:10:57.807Z,-2.79
2016-01-09T01:11:09.276Z,-2.83
2016-01-09T01:11:20.744Z,-2.79
2016-01-09T01:11:32.229Z,-2.81
2016-01-09T01:11:43.697Z,-2.83
2016-01-09T01:11:55.169Z,-2.83
2016-01-09T01:12:06.638Z,-2.85
2016-01-09T01:12:18.091Z,-2.81
2016-01-09T01:12:29.560Z,-2.81
2016-01-09T01:12:41.044Z,-2.86
2016-01-09T01:12:52.547Z,-2.9
2016-01-09T01:13:04.016Z,-2.9
2016-01-09T01:13:15.516Z,-2.88
2016-01-09T01:13:27.047Z,-2.88
2016-01-09T01:13:38.532Z,-2.88
2016-01-09T01:13:50.016Z,-2.88
2016-01-09T01:14:01.487Z,-2.96
2016-01-09T01:14:13.002Z,-2.82
2016-01-09T01:14:24.471Z,-2.96
2016-01-09T01:14:35.971Z,-2.85
2016-01-09T01:14:47.471Z,-2.96
2016-01-09T01:14:58.943Z,-2.91
2016-01-09T01:15:10.458Z,-3.01
2016-01-09T01:15:21.912Z,-2.9
2016-01-09T01:15:33.365Z,-2.93
2016-01-09T01:15:44.833Z,-2.93
2016-01-09T01:15:56.305Z,-2.94
2016-01-09T01:16:07.774Z,-2.93
2016-01-09T01:16:19.243Z,-2.94
2016-01-09T01:16:30.711Z,-2.96
2016-01-09T01:16:42.165Z,-2.9
2016-01-09T01:16:53.651Z,-2.93
2016-01-09T01:17:05.120Z,-2.9
2016-01-09T01:17:16.588Z,-2.9
2016-01-09T01:17:28.073Z,-2.96
2016-01-09T01:17:39.526Z,-2.99
2016-01-09T01:17:50.979Z,-2.9
2016-01-09T01:18:02.451Z,-2.97
2016-01-09T01:18:13.920Z,-2.94
2016-01-09T01:18:25.404Z,-2.99
2016-01-09T01:18:36.904Z,-2.96
2016-01-09T01:18:48.373Z,-3.01
2016-01-09T01:18:59.860Z,-2.91
2016-01-09T01:19:11.329Z,-2.97
2016-01-09T01:19:22.829Z,-2.94
2016-01-09T01:19:34.313Z,-2.99
2016-01-09T01:19:45.813Z,-2.94
2016-01-09T01:19:57.285Z,-2.9
2016-01-09T01:20:08.785Z,-3
2016-01-09T01:20:20.301Z,-2.97
2016-01-09T01:20:31.785Z,-2.94
2016-01-09T01:20:43.285Z,-3
2016-01-09T01:20:54.787Z,-3
2016-01-09T01:21:06.240Z,-2.94
2016-01-09T01:21:17.709Z,-2.93
2016-01-09T01:21:29.162Z,-2.94
2016-01-09T01:22:14.290Z,-3.01
2016-01-09T01:22:28.774Z,-2.94
2016-01-09T01:22:40.243Z,-2.97
2016-01-09T01:22:51.712Z,-2.93
2016-01-09T01:23:03.184Z,-2.93
2016-01-09T01:23:14.652Z,-3.04
2016-01-09T01:23:26.105Z,-2.93
2016-01-09T01:23:37.590Z,-2.94
2016-01-09T01:23:49.074Z,-2.93
2016-01-09T01:24:00.546Z,-2.97
2016-01-09T01:24:11.327Z,-2.97
2016-01-09T01:24:22.640Z,-2.94
2016-01-09T01:24:34.093Z,-3.03
2016-01-09T01:24:45.577Z,-2.93
2016-01-09T01:24:57.077Z,-2.94
2016-01-09T01:25:08.579Z,-2.97
2016-01-09T01:25:20.064Z,-2.97
2016-01-09T01:25:31.548Z,-2.97
2016-01-09T01:25:43.064Z,-2.91
2016-01-09T01:25:54.548Z,-2.9
2016-01-09T01:26:06.020Z,-2.97
2016-01-09T01:26:17.488Z,-2.94
2016-01-09T01:26:28.942Z,-2.97
2016-01-09T01:26:40.426Z,-3.01
2016-01-09T01:26:51.910Z,-3.01
2016-01-09T01:27:03.365Z,-2.97
2016-01-09T01:27:14.850Z,-2.96
2016-01-09T01:27:26.303Z,-2.94
2016-01-09T01:27:37.756Z,-2.88
2016-01-09T01:27:49.225Z,-2.93
2016-01-09T01:28:00.678Z,-2.99
2016-01-09T01:28:12.150Z,-2.97
2016-01-09T01:28:23.650Z,-2.96
2016-01-09T01:28:35.103Z,-3.04
2016-01-09T01:28:46.572Z,-2.97
2016-01-09T01:28:58.040Z,-2.93
2016-01-09T01:29:09.496Z,-2.97
2016-01-09T01:29:20.965Z,-2.97
2016-01-09T01:29:32.434Z,-2.93
2016-01-09T01:29:43.887Z,-2.94
2016-01-09T01:29:55.340Z,-2.91
2016-01-09T01:30:06.812Z,-2.93
2016-01-09T01:30:18.281Z,-3.04
2016-01-09T01:30:29.078Z,-2.94
2016-01-09T01:30:40.578Z,-2.86
2016-01-09T01:30:52.062Z,-2.88
2016-01-09T01:31:03.593Z,-2.96
2016-01-09T01:31:15.048Z,-2.94
2016-01-09T01:31:26.501Z,-2.96
2016-01-09T01:31:37.986Z,-2.96
2016-01-09T01:31:49.439Z,-2.94
2016-01-09T01:32:00.908Z,-2.93
2016-01-09T01:32:12.396Z,-2.94
2016-01-09T01:32:23.849Z,-2.93
2016-01-09T01:32:35.318Z,-2.99
2016-01-09T01:32:46.787Z,-2.99
2016-01-09T01:32:58.255Z,-2.94
2016-01-09T01:33:09.726Z,-2.93
2016-01-09T01:33:21.211Z,-2.97
2016-01-09T01:33:32.679Z,-2.94
2016-01-09T01:33:44.164Z,-2.96
2016-01-09T01:33:55.617Z,-2.97
2016-01-09T01:34:07.089Z,-2.94
2016-01-09T01:34:18.573Z,-2.94
2016-01-09T01:34:30.026Z,-2.99
2016-01-09T01:34:41.510Z,-2.97
2016-01-09T01:34:52.979Z,-2.96
2016-01-09T01:35:04.464Z,-2.91
2016-01-09T01:35:15.935Z,-3.04
2016-01-09T01:35:27.435Z,-2.93
2016-01-09T01:35:38.920Z,-2.9
2016-01-09T01:35:50.420Z,-2.93
2016-01-09T01:36:01.935Z,-2.96
2016-01-09T01:36:13.422Z,-2.96
2016-01-09T01:36:24.922Z,-2.99
2016-01-09T01:36:36.406Z,-2.93
2016-01-09T01:36:47.875Z,-2.88
2016-01-09T01:36:59.359Z,-2.97
2016-01-09T01:37:10.831Z,-2.99
2016-01-09T01:37:22.300Z,-2.94
2016-01-09T01:37:33.768Z,-2.97
2016-01-09T01:37:45.237Z,-2.93
2016-01-09T01:37:56.706Z,-3
2016-01-09T01:38:08.178Z,-2.88
2016-01-09T01:38:19.631Z,-2.97
2016-01-09T01:38:31.100Z,-2.93
2016-01-09T01:38:42.568Z,-2.99
2016-01-09T01:38:54.037Z,-3.03
2016-01-09T01:39:05.521Z,-2.93
2016-01-09T01:39:16.977Z,-2.97
2016-01-09T01:39:28.445Z,-2.99
2016-01-09T01:39:39.898Z,-2.9
2016-01-09T01:39:51.352Z,-2.9
2016-01-09T01:40:02.820Z,-2.91
2016-01-09T01:40:14.292Z,-2.97
2016-01-09T01:40:25.776Z,-2.93
2016-01-09T01:40:37.261Z,-2.9
2016-01-09T01:40:48.730Z,-2.94
2016-01-09T01:41:00.230Z,-2.94
2016-01-09T01:41:11.716Z,-2.9
2016-01-09T01:41:23.232Z,-2.9
2016-01-09T01:41:34.716Z,-2.93
2016-01-09T01:41:46.216Z,-2.91
2016-01-09T01:41:57.716Z,-3.01
2016-01-09T01:42:09.203Z,-3.03
2016-01-09T01:42:20.688Z,-2.94
2016-01-09T01:42:32.156Z,-2.93
2016-01-09T01:42:43.625Z,-2.93
2016-01-09T01:42:55.125Z,-2.91
2016-01-09T01:43:06.578Z,-2.93
2016-01-09T01:43:18.066Z,-2.9
2016-01-09T01:43:29.519Z,-2.94
2016-01-09T01:43:40.269Z,-2.93
2016-01-09T01:43:51.738Z,-2.96
2016-01-09T01:44:03.191Z,-2.93
2016-01-09T01:44:14.662Z,-3
2016-01-09T01:44:26.147Z,-2.93
2016-01-09T01:44:37.600Z,-2.88
2016-01-09T01:44:49.084Z,-2.94
2016-01-09T01:45:00.537Z,-2.97
2016-01-09T01:45:12.008Z,-2.96
2016-01-09T01:45:23.477Z,-2.94
2016-01-09T01:45:34.946Z,-2.91
2016-01-09T01:45:46.430Z,-2.99
2016-01-09T01:45:57.914Z,-2.99
2016-01-09T01:46:09.368Z,-2.96
2016-01-09T01:46:20.855Z,-2.99
2016-01-09T01:46:32.339Z,-2.88
2016-01-09T01:46:43.808Z,-2.9
2016-01-09T01:46:55.308Z,-2.86
2016-01-09T01:47:06.777Z,-2.94
2016-01-09T01:47:18.279Z,-2.97
2016-01-09T01:47:29.779Z,-2.93
2016-01-09T01:47:41.279Z,-2.99
2016-01-09T01:47:52.763Z,-2.97
2016-01-09T01:48:04.294Z,-3.01
2016-01-09T01:48:15.766Z,-2.94
2016-01-09T01:48:27.219Z,-2.93
2016-01-09T01:48:38.704Z,-2.96
2016-01-09T01:48:50.157Z,-2.91
2016-01-09T01:49:01.610Z,-2.93
2016-01-09T01:49:13.097Z,-2.88
2016-01-09T01:49:24.550Z,-2.91
2016-01-09T01:49:36.035Z,-2.96
2016-01-09T01:49:47.504Z,-2.93
2016-01-09T01:49:58.957Z,-2.96
2016-01-09T01:50:10.441Z,-2.9
2016-01-09T01:50:21.897Z,-2.88
2016-01-09T01:50:33.350Z,-2.83
2016-01-09T01:50:44.835Z,-2.85
2016-01-09T01:50:56.303Z,-2.83
2016-01-09T01:51:07.772Z,-2.83
2016-01-09T01:51:19.275Z,-2.83
2016-01-09T01:51:30.744Z,-2.96
2016-01-09T01:51:42.228Z,-2.91
2016-01-09T01:51:53.697Z,-2.82
2016-01-09T01:52:05.166Z,-2.88
2016-01-09T01:52:16.652Z,-2.91
2016-01-09T01:52:27.965Z,-2.91
2016-01-09T01:52:39.480Z,-2.82
2016-01-09T01:52:50.980Z,-2.9
2016-01-09T01:53:02.465Z,-2.85
2016-01-09T01:53:13.983Z,-2.9
2016-01-09T01:53:25.452Z,-2.9
2016-01-09T01:53:36.952Z,-2.82
2016-01-09T01:53:48.452Z,-2.82
2016-01-09T01:53:59.202Z,-2.83
2016-01-09T01:54:10.671Z,-2.82
2016-01-09T01:54:22.111Z,-2.86
2016-01-09T01:54:33.596Z,-2.81
2016-01-09T01:54:45.064Z,-2.79
2016-01-09T01:54:55.830Z,-2.86
2016-01-09T01:55:07.299Z,-2.85
2016-01-09T01:55:18.771Z,-2.83
2016-01-09T01:55:30.239Z,-2.86
2016-01-09T01:55:41.692Z,-2.86
2016-01-09T01:55:53.146Z,-2.86
2016-01-09T01:56:04.630Z,-2.78
2016-01-09T01:56:16.083Z,-2.83
2016-01-09T01:56:27.555Z,-2.85
2016-01-09T01:56:39.039Z,-2.88
2016-01-09T01:56:50.492Z,-2.91
2016-01-09T01:57:01.274Z,-2.85
2016-01-09T01:57:12.742Z,-2.75
2016-01-09T01:57:24.197Z,-2.83
2016-01-09T01:57:35.682Z,-2.9
2016-01-09T01:57:47.151Z,-2.85
2016-01-09T01:57:58.651Z,-2.83
2016-01-09T01:58:10.151Z,-2.79
2016-01-09T01:58:21.637Z,-2.75
2016-01-09T01:58:33.137Z,-2.9
2016-01-09T01:58:44.621Z,-2.86
2016-01-09T01:58:56.090Z,-2.9
2016-01-09T01:59:07.574Z,-2.82
2016-01-09T01:59:18.356Z,-2.81
2016-01-09T01:59:29.860Z,-2.76
2016-01-09T01:59:41.313Z,-2.81
2016-01-09T01:59:52.782Z,-2.81
2016-01-09T02:00:04.235Z,-2.81
2016-01-09T02:00:15.703Z,-2.83
2016-01-09T02:00:27.190Z,-2.86
2016-01-09T02:00:38.643Z,-2.85
2016-01-09T02:00:50.127Z,-2.86
2016-01-09T02:01:01.580Z,-2.86
2016-01-09T02:01:13.034Z,-2.85
2016-01-09T02:01:24.521Z,-2.86
2016-01-09T02:01:35.974Z,-2.82
2016-01-09T02:01:47.474Z,-2.81
2016-01-09T02:01:58.958Z,-2.78
2016-01-09T02:02:10.412Z,-2.75
2016-01-09T02:02:21.896Z,-2.81
2016-01-09T02:02:33.351Z,-2.86
2016-01-09T02:02:44.835Z,-2.82
2016-01-09T02:02:56.320Z,-2.83
2016-01-09T02:03:07.789Z,-2.83
2016-01-09T02:03:19.273Z,-2.83
2016-01-09T02:03:30.776Z,-2.76
2016-01-09T02:03:42.245Z,-2.75
2016-01-09T02:03:53.760Z,-2.76
2016-01-09T02:04:05.073Z,-2.73
2016-01-09T02:04:16.542Z,-2.79
2016-01-09T02:04:28.029Z,-2.91
2016-01-09T02:04:39.498Z,-2.81
2016-01-09T02:04:50.951Z,-2.86
2016-01-09T02:05:02.435Z,-2.85
2016-01-09T02:05:13.888Z,-2.75
2016-01-09T02:05:25.360Z,-2.83
2016-01-09T02:05:36.813Z,-2.86
2016-01-09T02:05:48.298Z,-2.82
2016-01-09T02:05:59.751Z,-2.82
2016-01-09T02:06:11.219Z,-2.76
2016-01-09T02:06:22.688Z,-2.78
2016-01-09T02:06:34.128Z,-2.82
2016-01-09T02:06:45.612Z,-2.75
2016-01-09T02:06:57.081Z,-2.78
2016-01-09T02:07:08.550Z,-2.81
2016-01-09T02:07:20.034Z,-2.82
2016-01-09T02:07:31.490Z,-2.85
2016-01-09T02:07:42.974Z,-2.81
2016-01-09T02:07:54.459Z,-2.83
2016-01-09T02:08:05.912Z,-2.76
2016-01-09T02:08:17.396Z,-2.83
2016-01-09T02:08:28.868Z,-2.82
2016-01-09T02:08:40.196Z,-2.75
2016-01-09T02:08:51.681Z,-2.78
2016-01-09T02:09:03.181Z,-2.78
2016-01-09T02:09:14.665Z,-2.72
2016-01-09T02:09:26.168Z,-2.81
2016-01-09T02:09:37.668Z,-2.76
2016-01-09T02:09:49.168Z,-2.73
2016-01-09T02:10:00.668Z,-2.79
2016-01-09T02:10:12.152Z,-2.81
2016-01-09T02:10:23.652Z,-2.73
2016-01-09T02:10:35.123Z,-2.83
2016-01-09T02:10:46.576Z,-2.78
2016-01-09T02:10:58.045Z,-2.82
2016-01-09T02:11:09.529Z,-2.79
2016-01-09T02:11:20.982Z,-2.76
2016-01-09T02:11:32.470Z,-2.83
2016-01-09T02:11:43.235Z,-2.78
2016-01-09T02:11:54.720Z,-2.79
2016-01-09T02:12:06.173Z,-2.76
2016-01-09T02:12:17.642Z,-2.76
2016-01-09T02:12:29.113Z,-2.79
2016-01-09T02:12:40.582Z,-2.76
2016-01-09T02:12:52.051Z,-2.79
2016-01-09T02:13:03.520Z,-2.83
2016-01-09T02:13:14.988Z,-2.81
2016-01-09T02:13:26.473Z,-2.76
2016-01-09T02:13:37.928Z,-2.81
2016-01-09T02:13:49.412Z,-2.72
2016-01-09T02:14:00.178Z,-2.81
2016-01-09T02:14:11.647Z,-2.75
2016-01-09T02:14:23.131Z,-2.73
2016-01-09T02:14:34.603Z,-2.76
2016-01-09T02:14:46.103Z,-2.82
2016-01-09T02:14:57.618Z,-2.78
2016-01-09T02:15:09.103Z,-2.79
2016-01-09T02:15:20.603Z,-2.81
2016-01-09T02:15:32.106Z,-2.73
2016-01-09T02:15:43.575Z,-2.86
2016-01-09T02:15:55.043Z,-2.82
2016-01-09T02:16:06.496Z,-2.81
2016-01-09T02:16:17.981Z,-2.85
2016-01-09T02:16:29.450Z,-2.82
2016-01-09T02:16:40.764Z,-2.75
2016-01-09T02:16:52.233Z,-2.75
2016-01-09T02:17:02.983Z,-2.91
2016-01-09T02:17:14.436Z,-2.82
2016-01-09T02:17:25.920Z,-2.88
2016-01-09T02:17:37.377Z,-2.86
2016-01-09T02:17:48.862Z,-2.9
2016-01-09T02:18:00.331Z,-2.91
2016-01-09T02:18:11.815Z,-2.81
2016-01-09T02:18:23.268Z,-2.82
2016-01-09T02:18:34.739Z,-2.83
2016-01-09T02:18:46.223Z,-2.86
2016-01-09T02:18:57.692Z,-2.88
2016-01-09T02:19:09.176Z,-2.9
2016-01-09T02:19:20.629Z,-2.85
2016-01-09T02:19:32.098Z,-2.82
2016-01-09T02:19:43.570Z,-2.86
2016-01-09T02:19:55.054Z,-2.82
2016-01-09T02:20:06.554Z,-2.85
2016-01-09T02:20:18.054Z,-2.91
2016-01-09T02:20:29.539Z,-2.79
2016-01-09T02:20:41.042Z,-2.86
2016-01-09T02:20:52.526Z,-2.85
2016-01-09T02:21:04.010Z,-2.79
2016-01-09T02:21:15.760Z,-2.79
2016-01-09T02:21:27.260Z,-2.91
2016-01-09T02:21:38.731Z,-2.85
2016-01-09T02:21:50.216Z,-2.82
2016-01-09T02:22:01.669Z,-2.88
2016-01-09T02:22:13.153Z,-2.86
2016-01-09T02:22:24.606Z,-2.83
2016-01-09T02:22:36.078Z,-2.93
2016-01-09T02:22:47.562Z,-2.88
2016-01-09T02:22:59.015Z,-2.91
2016-01-09T02:23:10.500Z,-2.85
2016-01-09T02:23:22.000Z,-2.83
2016-01-09T02:23:33.469Z,-2.91
2016-01-09T02:23:44.956Z,-2.83
2016-01-09T02:23:56.409Z,-2.82
2016-01-09T02:24:07.878Z,-2.99
2016-01-09T02:24:19.331Z,-3.01
2016-01-09T02:24:30.815Z,-2.96
2016-01-09T02:24:42.271Z,-2.91
2016-01-09T02:24:53.740Z,-2.99
2016-01-09T02:25:05.225Z,-2.88
2016-01-09T02:25:16.693Z,-2.96
2016-01-09T02:25:28.178Z,-2.93
2016-01-09T02:25:39.680Z,-2.93
2016-01-09T02:25:51.164Z,-2.99
2016-01-09T02:26:02.648Z,-2.91
2016-01-09T02:26:14.133Z,-2.93
2016-01-09T02:26:25.617Z,-2.93
2016-01-09T02:26:37.120Z,-2.96
2016-01-09T02:26:48.589Z,-2.99
2016-01-09T02:27:00.089Z,-2.96
2016-01-09T02:27:11.605Z,-2.91
2016-01-09T02:27:23.073Z,-2.99
2016-01-09T02:27:34.542Z,-2.97
2016-01-09T02:27:45.997Z,-2.93
2016-01-09T02:27:57.450Z,-2.96
2016-01-09T02:28:08.935Z,-3.01
2016-01-09T02:28:20.403Z,-2.97
2016-01-09T02:28:31.872Z,-2.97
2016-01-09T02:28:43.344Z,-2.97